createdAt,value
2023-03-04T00:02:20.435Z,18.58
2023-03-04T00:04:47.454Z,21.17
2023-03-04T00:07:16.846Z,21.77
2023-03-04T00:09:45.193Z,20.85
2023-03-04T00:12:13.177Z,20.25
2023-03-04T00:14:40.161Z,11.55
2023-03-04T00:17:07.729Z,17.13
2023-03-04T00:19:35.470Z,20.20
2023-03-04T00:22:04.147Z,25.52
2023-03-04T00:24:32.009Z,18.15
2023-03-04T00:26:59.467Z,14.35
2023-03-04T00:29:26.731Z,18.40
2023-03-04T00:31:54.110Z,19.50
2023-03-04T00:34:21.180Z,20.50
2023-03-04T00:36:48.432Z,22.20
2023-03-04T00:39:15.635Z,15.25
2023-03-04T00:41:42.893Z,17.30
2023-03-04T00:44:09.876Z,23.67
2023-03-04T00:46:37.064Z,19.67
2023-03-04T00:49:04.709Z,18.73
2023-03-04T00:51:31.920Z,16.23
2023-03-04T00:54:00.783Z,19.73
2023-03-04T00:56:28.441Z,20.70
2023-03-04T00:58:55.597Z,14.18
2023-03-04T01:01:23.027Z,27.95
2023-03-04T01:03:49.927Z,20.80
2023-03-04T01:06:17.231Z,20.83
2023-03-04T01:08:44.142Z,17.25
2023-03-04T01:11:11.540Z,15.48
2023-03-04T01:13:38.655Z,14.65
2023-03-04T01:16:06.855Z,18.13
2023-03-04T01:18:33.850Z,18.55
2023-03-04T01:21:01.130Z,17.45
2023-03-04T01:23:28.128Z,16.20
2023-03-04T01:25:55.339Z,22.45
2023-03-04T01:28:22.218Z,14.85
2023-03-04T01:30:49.549Z,22.38
2023-03-04T01:33:16.554Z,20.95
2023-03-04T01:35:43.901Z,16.15
2023-03-04T01:38:11.009Z,21.67
2023-03-04T01:40:38.977Z,18.73
2023-03-04T01:43:07.248Z,20.52
2023-03-04T01:45:35.888Z,20.33
2023-03-04T01:48:03.095Z,19.05
2023-03-04T01:50:34.519Z,22.30
2023-03-04T01:53:02.531Z,20.38
2023-03-04T01:55:31.061Z,27.85
2023-03-04T01:57:58.100Z,19.45
2023-03-04T02:00:31.763Z,20.00
2023-03-04T02:05:28.132Z,22.98
2023-03-04T02:07:57.000Z,18.30
2023-03-04T02:10:24.864Z,20.70
2023-03-04T02:12:52.988Z,21.50
2023-03-04T02:15:21.267Z,27.60
2023-03-04T02:17:48.245Z,18.92
2023-03-04T02:20:30.628Z,27.00
2023-03-04T02:23:07.388Z,18.90
2023-03-04T02:25:43.165Z,14.98
2023-03-04T02:28:10.257Z,21.00
2023-03-04T02:30:37.554Z,17.40
2023-03-04T02:33:04.742Z,21.55
2023-03-04T02:35:32.766Z,19.02
2023-03-04T02:37:59.770Z,19.48
2023-03-04T02:40:31.138Z,22.75
2023-03-04T02:43:01.981Z,22.48
2023-03-04T02:45:38.216Z,26.48
2023-03-04T02:48:05.529Z,18.30
2023-03-04T02:50:36.940Z,23.90
2023-03-04T02:53:04.373Z,19.25
2023-03-04T02:55:32.468Z,18.02
2023-03-04T02:57:59.761Z,20.90
2023-03-04T03:00:27.788Z,16.13
2023-03-04T03:02:56.991Z,21.70
2023-03-04T03:05:27.340Z,10.70
2023-03-04T03:07:54.334Z,13.02
2023-03-04T03:10:21.788Z,13.02
2023-03-04T03:12:48.921Z,15.27
2023-03-04T03:15:16.447Z,22.15
2023-03-04T03:17:43.519Z,16.80
2023-03-04T03:20:12.426Z,17.13
2023-03-04T03:22:40.186Z,20.42
2023-03-04T03:25:08.943Z,15.82
2023-03-04T03:27:36.120Z,13.23
2023-03-04T03:30:04.201Z,14.75
2023-03-04T03:32:31.300Z,14.80
2023-03-04T03:34:58.566Z,16.02
2023-03-04T03:37:25.689Z,16.50
2023-03-04T03:39:52.838Z,16.48
2023-03-04T03:42:19.790Z,14.52
2023-03-04T03:44:46.973Z,20.85
2023-03-04T03:47:13.953Z,24.25
2023-03-04T03:49:41.150Z,21.33
2023-03-04T03:52:09.097Z,45.70
2023-03-04T03:54:36.706Z,16.98
2023-03-04T03:57:03.773Z,15.70
2023-03-04T03:59:30.988Z,17.90
2023-03-04T04:01:58.010Z,16.33
2023-03-04T04:04:25.317Z,13.50
2023-03-04T04:06:52.290Z,13.35
2023-03-04T04:09:19.817Z,19.23
2023-03-04T04:11:46.795Z,12.00
2023-03-04T04:14:14.958Z,16.58
2023-03-04T04:16:42.444Z,18.17
2023-03-04T04:19:18.641Z,13.27
2023-03-04T04:21:46.442Z,11.93
2023-03-04T04:24:13.867Z,12.45
2023-03-04T04:26:41.640Z,13.68
2023-03-04T04:29:10.184Z,20.83
2023-03-04T04:31:37.072Z,18.52
2023-03-04T04:34:04.305Z,13.18
2023-03-04T04:36:31.431Z,12.50
2023-03-04T04:38:58.683Z,18.58
2023-03-04T04:41:29.892Z,17.27
2023-03-04T04:43:57.512Z,13.00
2023-03-04T04:46:24.469Z,18.17
2023-03-04T04:48:51.676Z,22.33
2023-03-04T04:51:18.746Z,16.27
2023-03-04T04:53:45.990Z,12.05
2023-03-04T04:56:19.953Z,14.57
2023-03-04T04:58:48.261Z,12.50
2023-03-04T05:01:15.669Z,21.45
2023-03-04T05:03:43.153Z,12.23
2023-03-04T05:06:11.286Z,13.60
2023-03-04T05:08:38.762Z,18.13
2023-03-04T05:11:06.629Z,9.95
2023-03-04T05:13:34.615Z,11.48
2023-03-04T05:16:02.021Z,13.68
2023-03-04T05:18:29.899Z,16.83
2023-03-04T05:20:59.440Z,14.60
2023-03-04T05:23:28.629Z,15.88
2023-03-04T05:25:55.873Z,15.30
2023-03-04T05:28:23.637Z,16.48
2023-03-04T05:30:50.699Z,13.10
2023-03-04T05:33:18.248Z,13.95
2023-03-04T05:35:46.589Z,11.18
2023-03-04T05:38:15.141Z,13.30
2023-03-04T05:40:42.702Z,11.52
2023-03-04T05:43:10.323Z,12.63
2023-03-04T05:45:38.350Z,9.15
2023-03-04T05:48:06.419Z,13.45
2023-03-04T05:50:34.086Z,11.80
2023-03-04T05:53:01.426Z,13.85
2023-03-04T05:55:30.001Z,19.98
2023-03-04T05:57:58.076Z,19.42
2023-03-04T06:00:25.323Z,16.45
2023-03-04T06:02:52.870Z,13.38
2023-03-04T06:05:20.650Z,13.00
2023-03-04T06:07:48.014Z,14.57
2023-03-04T06:10:17.641Z,9.32
2023-03-04T06:12:44.881Z,12.20
2023-03-04T06:15:12.876Z,11.07
2023-03-04T06:17:42.293Z,13.70
2023-03-04T06:20:10.985Z,12.57
2023-03-04T06:22:38.524Z,13.70
2023-03-04T06:25:06.646Z,13.30
2023-03-04T06:27:33.990Z,13.60
2023-03-04T06:30:01.983Z,7.90
2023-03-04T06:32:29.510Z,11.90
2023-03-04T06:34:56.438Z,9.27
2023-03-04T06:37:23.995Z,12.65
2023-03-04T06:39:51.047Z,13.25
2023-03-04T06:42:18.523Z,12.55
2023-03-04T06:44:45.533Z,11.52
2023-03-04T06:47:12.734Z,13.40
2023-03-04T06:49:39.779Z,9.35
2023-03-04T06:52:07.076Z,12.38
2023-03-04T06:54:34.000Z,12.75
2023-03-04T06:57:01.202Z,8.65
2023-03-04T06:59:28.099Z,10.18
2023-03-04T07:01:55.397Z,13.43
2023-03-04T07:04:23.535Z,13.02
2023-03-04T07:06:51.106Z,8.98
2023-03-04T07:09:18.831Z,40.70
2023-03-04T07:11:46.016Z,66.38
2023-03-04T07:14:13.030Z,45.50
2023-03-04T07:16:40.794Z,61.70
2023-03-04T07:19:07.881Z,42.03
2023-03-04T07:21:35.066Z,71.95
2023-03-04T07:24:01.956Z,30.33
2023-03-04T07:26:29.278Z,57.53
2023-03-04T07:28:58.378Z,23.55
2023-03-04T07:31:31.100Z,14.48
2023-03-04T07:34:00.605Z,10.90
2023-03-04T07:36:28.191Z,13.57
2023-03-04T07:38:56.603Z,13.52
2023-03-04T07:41:26.706Z,17.77
2023-03-04T07:43:53.944Z,56.20
2023-03-04T07:46:21.441Z,81.25
2023-03-04T07:48:48.389Z,33.63
2023-03-04T07:51:21.690Z,12.43
2023-03-04T07:53:51.615Z,9.75
2023-03-04T07:56:21.336Z,9.23
2023-03-04T07:58:48.839Z,9.77
2023-03-04T08:01:19.298Z,6.03
2023-03-04T08:03:46.772Z,7.05
2023-03-04T08:06:15.820Z,8.82
2023-03-04T08:08:43.145Z,18.50
2023-03-04T08:11:13.721Z,43.67
2023-03-04T08:13:40.929Z,14.27
2023-03-04T08:16:08.641Z,6.30
2023-03-04T08:18:35.651Z,6.70
2023-03-04T08:21:07.860Z,12.57
2023-03-04T08:23:34.921Z,12.73
2023-03-04T08:26:09.957Z,43.17
2023-03-04T08:28:37.304Z,28.05
2023-03-04T08:31:04.721Z,15.70
2023-03-04T08:33:32.510Z,8.18
2023-03-04T08:36:00.193Z,6.18
2023-03-04T08:38:27.166Z,11.05
2023-03-04T08:40:56.236Z,3.83
2023-03-04T08:43:24.586Z,5.40
2023-03-04T08:45:53.536Z,6.43
2023-03-04T08:48:20.926Z,6.45
2023-03-04T08:50:49.493Z,5.60
2023-03-04T08:53:17.726Z,12.00
2023-03-04T08:55:45.224Z,44.45
2023-03-04T08:58:13.281Z,45.47
2023-03-04T09:00:43.894Z,8.40
2023-03-04T09:03:12.765Z,4.20
2023-03-04T09:05:40.662Z,12.57
2023-03-04T09:08:08.337Z,16.63
2023-03-04T09:10:35.483Z,18.58
2023-03-04T09:13:02.571Z,18.55
2023-03-04T09:15:29.934Z,4.50
2023-03-04T09:17:56.854Z,6.00
2023-03-04T09:20:24.217Z,6.47
2023-03-04T09:22:51.310Z,12.05
2023-03-04T09:25:18.749Z,27.02
2023-03-04T09:27:45.672Z,14.15
2023-03-04T09:30:13.363Z,3.88
2023-03-04T09:32:41.401Z,6.43
2023-03-04T09:35:10.084Z,4.60
2023-03-04T09:37:39.156Z,4.07
2023-03-04T09:40:08.496Z,2.47
2023-03-04T09:42:42.920Z,10.05
2023-03-04T09:45:23.350Z,6.70
2023-03-04T09:47:53.031Z,4.32
2023-03-04T09:50:22.019Z,5.75
2023-03-04T09:53:17.210Z,4.63
2023-03-04T09:55:49.093Z,6.25
2023-03-04T09:58:34.906Z,6.18
2023-03-04T10:01:22.728Z,7.43
2023-03-04T10:03:58.373Z,3.88
2023-03-04T10:06:26.382Z,5.28
2023-03-04T10:08:58.832Z,10.65
2023-03-04T10:11:48.972Z,6.90
2023-03-04T10:14:37.329Z,11.93
2023-03-04T10:17:16.521Z,3.75
2023-03-04T10:20:18.331Z,7.00
2023-03-04T10:22:46.841Z,8.38
2023-03-04T10:25:16.783Z,6.25
2023-03-04T10:28:05.157Z,6.22
2023-03-04T10:30:51.057Z,7.47
2023-03-04T10:33:20.975Z,8.50
2023-03-04T10:36:19.141Z,6.75
2023-03-04T10:38:46.549Z,6.13
2023-03-04T10:41:20.864Z,5.63
2023-03-04T10:44:03.238Z,4.18
2023-03-04T10:46:31.146Z,8.10
2023-03-04T10:48:58.863Z,30.90
2023-03-04T10:51:30.505Z,30.55
2023-03-04T10:54:07.861Z,5.60
2023-03-04T10:56:52.491Z,4.97
2023-03-04T10:59:39.927Z,5.07
2023-03-04T11:02:27.209Z,8.13
2023-03-04T11:05:15.491Z,11.18
2023-03-04T11:07:57.312Z,3.15
2023-03-04T11:10:36.407Z,3.70
2023-03-04T11:13:12.137Z,3.50
2023-03-04T11:16:05.599Z,3.15
2023-03-04T11:18:45.928Z,5.03
2023-03-04T11:21:20.175Z,12.20
2023-03-04T11:23:49.866Z,5.07
2023-03-04T11:26:23.381Z,4.22
2023-03-04T11:29:10.526Z,9.57
2023-03-04T11:31:45.152Z,4.45
2023-03-04T11:34:40.835Z,23.40
2023-03-04T11:37:18.826Z,15.25
2023-03-04T11:40:15.306Z,8.15
2023-03-04T11:42:48.189Z,14.85
2023-03-04T11:45:28.226Z,18.52
2023-03-04T11:48:25.519Z,15.25
2023-03-04T11:50:57.851Z,5.53
2023-03-04T11:53:28.295Z,5.55
2023-03-04T11:56:04.357Z,6.60
2023-03-04T11:59:02.523Z,4.82
2023-03-04T12:01:58.295Z,5.13
2023-03-04T12:04:51.228Z,5.13
2023-03-04T12:07:48.048Z,3.90
2023-03-04T12:10:18.408Z,8.48
2023-03-04T12:13:28.417Z,6.30
2023-03-04T12:16:09.066Z,3.47
2023-03-04T12:19:17.359Z,3.72
2023-03-04T12:22:22.704Z,14.55
2023-03-04T12:24:58.589Z,7.40
2023-03-04T12:27:53.531Z,18.58
2023-03-04T12:30:38.424Z,4.97
2023-03-04T12:33:21.314Z,10.27
2023-03-04T12:36:00.201Z,6.82
2023-03-04T12:38:39.238Z,10.45
2023-03-04T12:41:20.563Z,13.57
2023-03-04T12:44:05.880Z,6.22
2023-03-04T12:46:41.112Z,8.82
2023-03-04T12:49:39.723Z,2.67
2023-03-04T12:52:12.471Z,5.10
2023-03-04T12:54:43.290Z,6.70
2023-03-04T12:57:34.339Z,6.55
2023-03-04T13:00:29.429Z,7.28
2023-03-04T13:03:19.479Z,5.40
2023-03-04T13:05:58.561Z,11.98
2023-03-04T13:08:45.808Z,8.40
2023-03-04T13:11:34.005Z,2.25
2023-03-04T13:14:15.035Z,4.85
2023-03-04T13:16:45.444Z,7.63
2023-03-04T13:19:46.224Z,4.28
2023-03-04T13:23:01.050Z,13.70
2023-03-04T13:25:32.592Z,16.30
2023-03-04T13:28:03.044Z,8.05
2023-03-04T13:30:33.479Z,15.75
2023-03-04T13:33:15.489Z,7.47
2023-03-04T13:35:51.611Z,3.10
2023-03-04T13:38:34.229Z,5.43
2023-03-04T13:41:19.785Z,8.93
2023-03-04T13:43:52.038Z,3.70
2023-03-04T13:46:19.188Z,6.10
2023-03-04T13:48:46.471Z,10.68
2023-03-04T13:51:32.634Z,12.38
2023-03-04T13:53:59.762Z,18.10
2023-03-04T13:56:39.051Z,15.82
2023-03-04T13:59:08.928Z,16.35
2023-03-04T14:01:37.370Z,14.38
2023-03-04T14:04:22.799Z,15.55
2023-03-04T14:06:51.865Z,93.10
2023-03-04T14:09:25.238Z,21.75
2023-03-04T14:11:54.988Z,10.15
2023-03-04T14:14:26.913Z,5.25
2023-03-04T14:16:58.681Z,16.15
2023-03-04T14:19:30.393Z,11.68
2023-03-04T14:21:59.557Z,13.73
2023-03-04T14:24:27.164Z,5.32
2023-03-04T14:27:14.459Z,13.13
2023-03-04T14:29:41.944Z,7.55
2023-03-04T14:32:11.980Z,6.00
2023-03-04T14:34:39.756Z,2.70
2023-03-04T14:37:22.985Z,3.80
2023-03-04T14:39:55.766Z,5.50
2023-03-04T14:42:26.440Z,14.30
2023-03-04T14:44:57.066Z,12.00
2023-03-04T14:47:38.037Z,13.10
2023-03-04T14:50:08.242Z,6.95
2023-03-04T14:52:41.047Z,89.55
2023-03-04T14:57:59.011Z,96.90
2023-03-04T15:00:36.893Z,263.40
2023-03-04T15:03:29.025Z,15.45
2023-03-04T15:06:05.903Z,15.45
2023-03-04T15:08:40.312Z,15.93
2023-03-04T15:11:08.654Z,5.72
2023-03-04T15:13:43.102Z,18.77
2023-03-04T15:16:12.166Z,4.07
2023-03-04T15:18:39.808Z,7.55
2023-03-04T15:21:34.344Z,8.20
2023-03-04T15:24:03.623Z,20.52
2023-03-04T15:26:33.715Z,25.63
2023-03-04T15:29:00.890Z,4.65
2023-03-04T15:31:30.029Z,4.93
2023-03-04T15:33:56.952Z,6.70
2023-03-04T15:36:24.532Z,8.20
2023-03-04T15:38:53.443Z,185.43
2023-03-04T15:41:25.875Z,39.47
2023-03-04T15:43:54.249Z,24.95
2023-03-04T15:46:22.241Z,39.80
2023-03-04T15:48:49.839Z,58.92
2023-03-04T15:51:22.185Z,14.50
2023-03-04T15:53:53.598Z,26.42
2023-03-04T15:56:24.181Z,24.02
2023-03-04T15:59:13.771Z,23.65
2023-03-04T16:01:41.437Z,14.75
2023-03-04T16:04:17.926Z,10.80
2023-03-04T16:06:47.020Z,10.25
2023-03-04T16:09:16.829Z,15.07
2023-03-04T16:11:47.392Z,23.10
2023-03-04T16:14:15.600Z,19.75
2023-03-04T16:16:44.332Z,71.70
2023-03-04T16:19:11.678Z,84.20
2023-03-04T16:21:39.309Z,173.02
2023-03-04T16:24:06.402Z,161.38
2023-03-04T16:26:34.546Z,150.80
2023-03-04T16:29:02.293Z,61.97
2023-03-04T16:31:29.793Z,93.20
2023-03-04T16:33:56.762Z,87.60
2023-03-04T16:36:26.684Z,175.88
2023-03-04T16:38:59.495Z,36.20
2023-03-04T16:43:56.721Z,27.73
2023-03-04T16:46:24.609Z,24.02
2023-03-04T16:48:51.562Z,16.88
2023-03-04T16:51:21.929Z,22.85
2023-03-04T16:53:56.212Z,18.13
2023-03-04T16:56:23.766Z,16.10
2023-03-04T16:58:50.807Z,24.25
2023-03-04T17:01:20.662Z,17.92
2023-03-04T17:03:47.933Z,20.05
2023-03-04T17:06:15.787Z,13.02
2023-03-04T17:08:43.436Z,11.70
2023-03-04T17:11:17.230Z,11.00
2023-03-04T17:13:44.655Z,7.95
2023-03-04T17:16:12.503Z,29.45
2023-03-04T17:18:39.707Z,25.15
2023-03-04T17:21:10.696Z,68.78
2023-03-04T17:23:37.805Z,117.90
2023-03-04T17:26:06.069Z,67.50
2023-03-04T17:28:33.313Z,69.55
2023-03-04T17:31:00.669Z,103.63
2023-03-04T17:33:27.976Z,95.18
2023-03-04T17:35:56.823Z,90.32
2023-03-04T17:38:23.840Z,94.80
2023-03-04T17:40:51.093Z,48.83
2023-03-04T17:43:18.139Z,19.88
2023-03-04T17:45:45.302Z,26.42
2023-03-04T17:48:15.063Z,21.73
2023-03-04T17:50:52.743Z,15.40
2023-03-04T17:53:20.314Z,35.30
2023-03-04T17:55:52.612Z,17.67
2023-03-04T17:58:20.006Z,16.33
2023-03-04T18:00:48.153Z,17.25
2023-03-04T18:03:15.586Z,15.23
2023-03-04T18:05:43.099Z,43.22
2023-03-04T18:08:10.313Z,51.05
2023-03-04T18:10:37.564Z,36.05
2023-03-04T18:13:04.533Z,46.85
2023-03-04T18:15:32.158Z,60.80
2023-03-04T18:17:59.146Z,76.00
2023-03-04T18:20:26.750Z,62.63
2023-03-04T18:22:53.661Z,42.53
2023-03-04T18:25:21.437Z,31.23
2023-03-04T18:27:48.416Z,63.63
2023-03-04T18:30:21.017Z,62.28
2023-03-04T18:32:52.278Z,41.55
2023-03-04T18:35:21.215Z,60.88
2023-03-04T18:37:49.335Z,27.15
2023-03-04T18:40:17.282Z,25.60
2023-03-04T18:42:44.792Z,21.27
2023-03-04T18:45:16.903Z,32.13
2023-03-04T18:47:48.332Z,52.65
2023-03-04T18:50:16.146Z,51.15
2023-03-04T18:52:43.936Z,55.10
2023-03-04T18:55:12.975Z,32.92
2023-03-04T18:57:46.889Z,37.72
2023-03-04T19:00:21.981Z,45.75
2023-03-04T19:02:52.241Z,25.38
2023-03-04T19:05:23.040Z,27.23
2023-03-04T19:07:50.046Z,20.27
2023-03-04T19:10:18.115Z,16.33
2023-03-04T19:12:45.138Z,9.75
2023-03-04T19:15:13.056Z,13.50
2023-03-04T19:17:40.380Z,14.93
2023-03-04T19:20:10.072Z,13.27
2023-03-04T19:22:37.089Z,16.25
2023-03-04T19:25:05.028Z,11.98
2023-03-04T19:27:32.294Z,14.60
2023-03-04T19:29:59.500Z,12.07
2023-03-04T19:32:26.514Z,14.68
2023-03-04T19:34:53.996Z,14.27
2023-03-04T19:37:20.913Z,14.63
2023-03-04T19:39:49.188Z,10.48
2023-03-04T19:42:16.660Z,14.82
2023-03-04T19:44:45.083Z,9.95
2023-03-04T19:47:12.626Z,9.65
2023-03-04T19:49:39.902Z,10.30
2023-03-04T19:52:06.935Z,7.93
2023-03-04T19:54:34.250Z,9.70
2023-03-04T19:57:01.147Z,7.40
2023-03-04T19:59:28.350Z,9.93
2023-03-04T20:01:55.394Z,11.68
2023-03-04T20:04:22.670Z,12.07
2023-03-04T20:06:51.031Z,12.18
2023-03-04T20:09:19.068Z,9.98
2023-03-04T20:11:57.839Z,11.43
2023-03-04T20:14:34.239Z,14.40
2023-03-04T20:17:03.220Z,15.65
2023-03-04T20:19:31.676Z,11.00
2023-03-04T20:21:58.623Z,24.85
2023-03-04T20:24:26.349Z,12.98
2023-03-04T20:26:53.650Z,10.73
2023-03-04T20:29:21.192Z,11.18
2023-03-04T20:31:48.512Z,13.13
2023-03-04T20:34:16.044Z,15.32
2023-03-04T20:36:42.962Z,15.13
2023-03-04T20:39:27.704Z,19.95
2023-03-04T20:41:57.594Z,13.10
2023-03-04T20:44:25.067Z,14.00
2023-03-04T20:46:52.144Z,11.15
2023-03-04T20:49:23.781Z,11.45
2023-03-04T20:51:56.069Z,18.55
2023-03-04T20:54:23.651Z,14.50
2023-03-04T20:56:51.054Z,17.60
2023-03-04T20:59:18.606Z,15.98
2023-03-04T21:01:48.043Z,14.07
2023-03-04T21:04:16.283Z,16.25
2023-03-04T21:06:44.967Z,15.38
2023-03-04T21:09:15.456Z,14.25
2023-03-04T21:11:43.477Z,20.15
2023-03-04T21:14:37.739Z,15.93
2023-03-04T21:17:05.277Z,17.40
2023-03-04T21:19:36.426Z,14.55
2023-03-04T21:22:04.269Z,11.27
2023-03-04T21:24:34.243Z,17.10
2023-03-04T21:27:01.672Z,14.77
2023-03-04T21:29:29.072Z,15.57
2023-03-04T21:31:55.944Z,13.40
2023-03-04T21:34:29.346Z,12.32
2023-03-04T21:36:56.308Z,15.43
2023-03-04T21:39:24.419Z,13.00
2023-03-04T21:41:52.249Z,12.82
2023-03-04T21:44:27.996Z,13.02
2023-03-04T21:46:57.422Z,12.13
2023-03-04T21:49:25.848Z,11.70
2023-03-04T21:51:52.793Z,12.07
2023-03-04T21:54:20.161Z,15.80
2023-03-04T21:56:47.450Z,17.20
2023-03-04T21:59:17.300Z,10.88
2023-03-04T22:01:44.836Z,14.40
2023-03-04T22:04:12.303Z,14.98
2023-03-04T22:06:40.890Z,13.55
2023-03-04T22:09:08.657Z,13.25
2023-03-04T22:11:35.976Z,13.52
2023-03-04T22:14:03.565Z,15.38
2023-03-04T22:16:35.402Z,11.27
2023-03-04T22:19:04.754Z,12.18
2023-03-04T22:21:31.677Z,14.18
2023-03-04T22:23:59.092Z,10.80
2023-03-04T22:26:31.743Z,8.73
2023-03-04T22:29:02.245Z,8.10
2023-03-04T22:31:33.058Z,9.07
2023-03-04T22:34:07.625Z,9.82
2023-03-04T22:36:36.511Z,6.75
2023-03-04T22:39:06.644Z,7.57
2023-03-04T22:41:33.770Z,10.27
2023-03-04T22:44:01.615Z,10.20
2023-03-04T22:46:30.901Z,11.05
2023-03-04T22:49:00.355Z,10.25
2023-03-04T22:51:28.740Z,9.93
2023-03-04T22:53:56.490Z,19.52
2023-03-04T22:56:23.515Z,9.73
2023-03-04T22:58:51.514Z,10.55
2023-03-04T23:01:19.129Z,10.07
2023-03-04T23:03:48.442Z,8.20
2023-03-04T23:06:18.690Z,6.22
2023-03-04T23:08:47.831Z,7.75
2023-03-04T23:11:17.545Z,6.07
2023-03-04T23:13:44.881Z,7.82
2023-03-04T23:16:12.927Z,9.80
2023-03-04T23:18:42.740Z,10.10
2023-03-04T23:21:16.723Z,5.43
2023-03-04T23:23:44.083Z,5.38
2023-03-04T23:26:22.760Z,5.22
2023-03-04T23:28:50.364Z,6.55
2023-03-04T23:31:18.325Z,4.45
2023-03-04T23:33:47.755Z,10.30
2023-03-04T23:36:17.625Z,8.50
2023-03-04T23:38:47.410Z,9.27
2023-03-04T23:41:19.486Z,6.03
2023-03-04T23:43:48.280Z,8.33
2023-03-04T23:46:15.536Z,7.18
2023-03-04T23:48:46.340Z,5.55
2023-03-04T23:51:16.440Z,9.65
2023-03-04T23:53:44.134Z,7.00
2023-03-04T23:56:16.880Z,5.00
2023-03-04T23:58:44.507Z,5.60
